Terminal Aerodrome Forecast
Issued by NWS

Home | Current Version | Previous Version | Text Only | Print | Product List | Glossary On
Versions: 1 2 3 4 5 6 7 8 9 10 11 12 13 14 15 16 17 18 19 20 21 22 23
000
FTAK31 PANC 211740
TAFAHO
TAF
PAHO 211740Z 2118/2218 04004KT P6SM VCSH SCT060 BKN100
     FM220600 VRB03KT P6SM -SHSN SCT025 BKN040=

USA.gov is the U.S. government's official web portal to all federal, state and local government web resources and services.